Flugplatz Rendsburg-Schachtholm

Für EDXR sind keine METAR/TAF Berichte vorhanden.
Es werden die Flugwettermeldungen vom Flugplatz Hohn Airport in 10 km Entfernung angezeigt.

Bericht für ETNH

vom 04.03. um 05:20 UTC

Wind 10 kt aus 270°

Sichtweite 8000 m

aufgebrochene Bewölkung in 1300 ft

Temperatur 4.0°C

Taupunkt 2.0°C

Luftfeuchtigkeit 87%

Luftdruck 1018 hPa

ETNH 040520Z 27010KT 8000 BKN013 04/02 Q1018 GRN GRN TEMPO YLO

Prognose für ETNH

vom 04.03. um 05:20 UTC

Zwischen 06:00 UTC und 10:00 UTC

Wind 10 kt aus 290°

Sichtweite 8000 m

keine signifikanten Wettererscheinungen

aufgebrochene Bewölkung in 1200 ft


Zwischen 06:00 UTC und 10:00 UTC zeitweise

Wind 10 kt aus 300°

Sichtweite 4000 m

feuchter Dunst

aufgebrochene Bewölkung in 600 ft


Zwischen 10:00 und 12:00 UTC übergehend zu

Wind 12 kt aus 10°

Sichtweite 10 km oder mehr

keine signifikanten Wettererscheinungen

aufgebrochene Bewölkung in 1500 ft


Zwischen 13:00 und 15:00 UTC übergehend zu

Wind 12 kt aus 30°

Sichtweite 10 km oder mehr

keine signifikanten Wettererscheinungen

aufgelockert bewölkt in 3000 ft

TAF ETNH 040520Z 0406/0418 29010KT 8000 NSW BKN012 TEMPO 0406/0410 30010KT 4000 BR BKN006 BECMG 0410/0412 01012KT 9999 NSW BKN015 BECMG 0413/0415 03012KT 9999 NSW SCT030 BY ETGL
Impressum